createdAt,value
2022-10-22T00:09:52.989Z,100265.75
2022-10-22T00:14:58.208Z,100267.78
2022-10-22T00:20:01.645Z,100292.22
2022-10-22T00:25:05.598Z,100295.72
2022-10-22T00:30:12.326Z,100306.75
2022-10-22T00:35:15.854Z,100294.22
2022-10-22T00:40:19.385Z,100282.69
2022-10-22T00:45:26.238Z,100265.75
2022-10-22T00:50:32.747Z,100274.31
2022-10-22T00:55:36.461Z,100282.31
2022-10-22T01:00:41.385Z,100274.25
2022-10-22T01:06:05.472Z,100284.97
2022-10-22T01:11:14.442Z,100289.50
2022-10-22T01:16:23.752Z,100299.03
2022-10-22T01:21:32.300Z,100275.59
2022-10-22T01:26:45.243Z,100282.59
2022-10-22T01:31:54.415Z,100290.47
2022-10-22T01:36:59.054Z,100288.47
2022-10-22T01:42:02.456Z,100303.19
2022-10-22T01:47:17.003Z,100299.34
2022-10-22T01:52:26.985Z,100278.13
2022-10-22T01:57:35.730Z,100279.47
2022-10-22T02:02:44.447Z,100264.25
2022-10-22T02:07:50.790Z,100263.06
2022-10-22T02:12:55.897Z,100262.91
2022-10-22T02:18:01.162Z,100287.50
2022-10-22T02:23:04.801Z,100280.59
2022-10-22T02:28:14.623Z,100271.91
2022-10-22T02:33:21.927Z,100275.25
2022-10-22T02:38:26.387Z,100282.13
2022-10-22T02:43:30.113Z,100276.25
2022-10-22T02:48:34.887Z,100279.94
2022-10-22T02:53:38.221Z,100289.31
2022-10-22T02:58:41.562Z,100301.03
2022-10-22T03:03:46.267Z,100305.66
2022-10-22T03:08:49.910Z,100306.38
2022-10-22T03:13:53.353Z,100305.38
2022-10-22T03:18:58.086Z,100298.72
2022-10-22T03:24:03.242Z,100307.78
2022-10-22T03:29:06.894Z,100305.91
2022-10-22T03:34:13.393Z,100312.41
2022-10-22T03:39:17.881Z,100303.06
2022-10-22T03:44:21.689Z,100303.22
2022-10-22T03:49:26.499Z,100313.06
2022-10-22T03:54:29.950Z,100314.25
2022-10-22T03:59:36.086Z,100331.50
2022-10-22T04:04:40.907Z,100335.16
2022-10-22T04:09:44.247Z,100327.66
2022-10-22T04:14:47.601Z,100333.19
2022-10-22T04:19:52.323Z,100341.16
2022-10-22T04:24:55.688Z,100332.66
2022-10-22T04:29:59.077Z,100340.19
2022-10-22T04:35:04.090Z,100352.41
2022-10-22T04:40:08.946Z,100348.22
2022-10-22T04:45:12.342Z,100360.53
2022-10-22T04:50:17.297Z,100364.34
2022-10-22T04:55:20.792Z,100358.16
2022-10-22T05:00:24.265Z,100350.50
2022-10-22T05:05:29.028Z,100347.81
2022-10-22T05:10:32.481Z,100347.50
2022-10-22T05:15:35.963Z,100359.25
2022-10-22T05:20:41.773Z,100352.41
2022-10-22T05:25:45.141Z,100358.22
2022-10-22T05:30:54.341Z,100370.78
2022-10-22T05:35:59.432Z,100378.63
2022-10-22T05:41:04.002Z,100371.63
2022-10-22T05:46:08.754Z,100380.25
2022-10-22T05:51:14.688Z,100371.09
2022-10-22T05:56:18.083Z,100387.31
2022-10-22T06:01:23.714Z,100388.13
2022-10-22T06:06:30.493Z,100396.69
2022-10-22T06:11:35.294Z,100415.41
2022-10-22T06:16:39.041Z,100406.38
2022-10-22T06:21:44.182Z,100414.00
2022-10-22T06:26:50.641Z,100422.38
2022-10-22T06:31:54.078Z,100429.09
2022-10-22T06:36:58.928Z,100428.63
2022-10-22T06:42:02.332Z,100442.25
2022-10-22T06:47:10.786Z,100450.75
2022-10-22T06:52:15.512Z,100454.97
2022-10-22T06:57:19.003Z,100461.47
2022-10-22T07:02:22.670Z,100473.03
2022-10-22T07:07:27.618Z,100475.22
2022-10-22T07:12:31.071Z,100483.56
2022-10-22T07:17:34.619Z,100492.25
2022-10-22T07:22:39.865Z,100490.59
2022-10-22T07:27:43.676Z,100496.47
2022-10-22T07:32:47.243Z,100486.75
2022-10-22T07:37:52.358Z,100503.84
2022-10-22T07:42:55.783Z,100499.97
2022-10-22T07:48:00.525Z,100494.34
2022-10-22T07:53:05.382Z,100502.91
2022-10-22T07:58:08.930Z,100498.88
2022-10-22T08:03:13.189Z,100500.06
2022-10-22T08:08:18.167Z,100505.94
2022-10-22T08:13:22.473Z,100512.22
2022-10-22T08:18:26.139Z,100515.91
2022-10-22T08:23:30.989Z,100517.56
2022-10-22T08:28:37.013Z,100536.38
2022-10-22T08:33:40.905Z,100519.22
2022-10-22T08:38:45.594Z,100520.69
2022-10-22T08:44:12.156Z,100520.84
2022-10-22T08:49:20.537Z,100518.81
2022-10-22T08:54:31.817Z,100511.16
2022-10-22T08:59:39.690Z,100511.06
2022-10-22T09:04:47.858Z,100522.03
2022-10-22T09:09:54.257Z,100517.09
2022-10-22T09:14:57.637Z,100514.69
2022-10-22T09:20:05.620Z,100523.81
2022-10-22T09:25:20.872Z,100523.25
2022-10-22T09:30:26.090Z,100523.03
2022-10-22T09:35:29.853Z,100533.41
2022-10-22T09:40:43.614Z,100539.69
2022-10-22T09:45:47.521Z,100540.81
2022-10-22T09:50:56.259Z,100554.25
2022-10-22T09:56:02.166Z,100552.28
2022-10-22T10:01:05.718Z,100553.72
2022-10-22T10:06:09.410Z,100557.69
2022-10-22T10:11:20.474Z,100573.25
2022-10-22T10:16:34.015Z,100571.53
2022-10-22T10:21:41.633Z,100573.78
2022-10-22T10:26:50.866Z,100583.00
2022-10-22T10:32:07.803Z,100576.75
2022-10-22T10:37:19.123Z,100576.00
2022-10-22T10:42:28.242Z,100571.66
2022-10-22T10:48:07.278Z,100567.53
2022-10-22T10:53:16.065Z,100583.72
2022-10-22T10:58:27.042Z,100589.44
2022-10-22T11:04:02.438Z,100595.84
2022-10-22T11:09:08.751Z,100585.84
2022-10-22T11:14:16.323Z,100590.69
2022-10-22T11:19:27.816Z,100589.38
2022-10-22T11:24:47.566Z,100588.53
2022-10-22T11:29:55.891Z,100595.41
2022-10-22T11:35:00.857Z,100594.31
2022-10-22T11:40:06.969Z,100586.63
2022-10-22T11:50:50.765Z,100596.47
2022-10-22T11:55:55.573Z,100599.28
2022-10-22T12:01:19.683Z,100605.50
2022-10-22T12:06:25.216Z,100598.56
2022-10-22T12:11:30.059Z,100595.84
2022-10-22T12:16:55.286Z,100589.94
2022-10-22T12:22:09.142Z,100588.31
2022-10-22T12:27:23.304Z,100585.72
2022-10-22T12:32:34.646Z,100582.31
2022-10-22T12:37:39.873Z,100582.09
2022-10-22T12:42:49.257Z,100580.22
2022-10-22T12:47:54.053Z,100572.56
2022-10-22T12:52:58.946Z,100577.13
2022-10-22T12:58:06.605Z,100574.94
2022-10-22T13:03:26.020Z,100569.03
2022-10-22T13:08:30.932Z,100564.00
2022-10-22T13:13:43.064Z,100576.09
2022-10-22T13:18:48.981Z,100578.00
2022-10-22T13:23:59.664Z,100579.94
2022-10-22T13:29:04.786Z,100575.78
2022-10-22T13:34:11.766Z,100586.16
2022-10-22T13:39:19.710Z,100594.94
2022-10-22T13:44:23.142Z,100612.88
2022-10-22T13:49:26.516Z,100616.44
2022-10-22T13:54:31.349Z,100620.63
2022-10-22T13:59:34.788Z,100617.91
2022-10-22T14:04:41.051Z,100622.13
2022-10-22T14:09:45.757Z,100617.84
2022-10-22T14:14:49.177Z,100617.09
2022-10-22T14:19:52.570Z,100614.22
2022-10-22T14:24:57.366Z,100625.31
2022-10-22T14:30:00.760Z,100620.44
2022-10-22T14:35:04.589Z,100619.53
2022-10-22T14:40:10.678Z,100628.66
2022-10-22T14:45:16.986Z,100628.50
2022-10-22T14:50:20.438Z,100627.00
2022-10-22T14:55:27.494Z,100626.50
2022-10-22T15:00:30.901Z,100627.06
2022-10-22T15:05:36.161Z,100634.31
2022-10-22T15:10:41.416Z,100627.00
2022-10-22T15:15:44.731Z,100651.91
2022-10-22T15:20:55.912Z,100666.75
2022-10-22T15:26:00.608Z,100670.13
2022-10-22T15:31:04.150Z,100681.47
2022-10-22T15:36:11.795Z,100680.31
2022-10-22T15:41:16.471Z,100684.34
2022-10-22T15:46:20.504Z,100694.81
2022-10-22T15:51:23.859Z,100702.13
2022-10-22T15:56:30.234Z,100700.50
2022-10-22T16:01:34.595Z,100702.69
2022-10-22T16:06:39.681Z,100709.31
2022-10-22T16:11:44.722Z,100713.66
2022-10-22T16:16:49.386Z,100725.25
2022-10-22T16:21:54.541Z,100742.16
2022-10-22T16:27:00.106Z,100748.78
2022-10-22T16:32:03.461Z,100745.59
2022-10-22T16:37:10.141Z,100753.94
2022-10-22T16:42:15.187Z,100759.50
2022-10-22T16:47:18.554Z,100753.34
2022-10-22T16:52:21.927Z,100767.66
2022-10-22T16:57:26.616Z,100760.78
2022-10-22T17:02:29.960Z,100771.31
2022-10-22T17:07:33.320Z,100773.97
2022-10-22T17:12:38.179Z,100771.91
2022-10-22T17:17:41.867Z,100773.22
2022-10-22T17:22:45.278Z,100771.94
2022-10-22T17:27:50.361Z,100780.66
2022-10-22T17:32:53.713Z,100782.03
2022-10-22T17:37:57.098Z,100786.38
2022-10-22T17:43:01.867Z,100786.72
2022-10-22T17:48:05.491Z,100795.50
2022-10-22T17:53:08.957Z,100799.84
2022-10-22T17:58:13.810Z,100801.03
2022-10-22T18:03:17.246Z,100810.94
2022-10-22T18:08:20.720Z,100812.78
2022-10-22T18:13:25.505Z,100819.03
2022-10-22T18:18:29.291Z,100821.53
2022-10-22T18:23:33.231Z,100825.06
2022-10-22T18:28:38.045Z,100828.78
2022-10-22T18:33:41.731Z,100829.28
2022-10-22T18:38:45.117Z,100843.56
2022-10-22T18:43:52.200Z,100840.19
2022-10-22T18:48:56.174Z,100844.22
2022-10-22T18:54:05.730Z,100846.25
2022-10-22T18:59:25.963Z,100834.13
2022-10-22T19:04:33.187Z,100841.91
2022-10-22T19:09:36.593Z,100838.69
2022-10-22T19:14:41.625Z,100855.78
2022-10-22T19:19:45.228Z,100848.91
2022-10-22T19:24:50.109Z,100855.44
2022-10-22T19:29:54.793Z,100854.94
2022-10-22T19:34:58.165Z,100858.94
2022-10-22T19:40:01.523Z,100861.28
2022-10-22T19:45:08.111Z,100870.31
2022-10-22T19:50:11.484Z,100877.09
2022-10-22T19:55:15.309Z,100877.72
2022-10-22T20:00:20.191Z,100866.50
2022-10-22T20:10:32.228Z,100869.69
2022-10-22T20:15:37.349Z,100877.59
2022-10-22T20:20:40.886Z,100880.81
2022-10-22T20:25:45.412Z,100884.47
2022-10-22T20:30:50.158Z,100895.50
2022-10-22T20:36:00.458Z,100897.97
2022-10-22T20:41:05.316Z,100888.84
2022-10-22T20:46:15.624Z,100898.28
2022-10-22T20:51:19.057Z,100902.16
2022-10-22T20:56:22.639Z,100904.81
2022-10-22T21:01:28.447Z,100909.06
2022-10-22T21:06:31.866Z,100904.28
2022-10-22T21:11:35.738Z,100902.16
2022-10-22T21:16:42.798Z,100903.72
2022-10-22T21:21:46.365Z,100910.59
2022-10-22T21:26:49.721Z,100912.63
2022-10-22T21:31:54.828Z,100912.81
2022-10-22T21:36:58.234Z,100920.81
2022-10-22T21:42:01.607Z,100910.88
2022-10-22T21:47:06.543Z,100904.16
2022-10-22T21:52:09.905Z,100900.00
2022-10-22T21:57:13.269Z,100899.78
2022-10-22T22:02:18.121Z,100906.97
2022-10-22T22:07:21.711Z,100905.31
2022-10-22T22:12:25.110Z,100899.41
2022-10-22T22:17:29.937Z,100890.03
2022-10-22T22:22:33.334Z,100896.69
2022-10-22T22:27:36.706Z,100907.38
2022-10-22T22:32:42.352Z,100909.81
2022-10-22T22:37:45.732Z,100907.66
2022-10-22T22:42:49.666Z,100911.19
2022-10-22T22:47:54.491Z,100908.22
2022-10-22T22:52:58.054Z,100908.22
2022-10-22T22:58:01.461Z,100904.56
2022-10-22T23:03:06.319Z,100899.78
2022-10-22T23:08:09.831Z,100903.16
2022-10-22T23:13:13.208Z,100909.50
2022-10-22T23:18:18.395Z,100907.41
2022-10-22T23:23:21.758Z,100910.66
2022-10-22T23:28:25.195Z,100908.81
2022-10-22T23:33:29.965Z,100912.75
2022-10-22T23:38:33.559Z,100917.13
2022-10-22T23:43:37.783Z,100904.06
2022-10-22T23:48:42.941Z,100906.00
2022-10-22T23:53:47.435Z,100893.22
2022-10-22T23:58:52.498Z,100896.72
